createdAt,value
2018-12-22T00:02:21.828Z,11.50
2018-12-22T00:04:49.783Z,11.50
2018-12-22T00:07:34.653Z,11.50
2018-12-22T00:10:02.636Z,11.50
2018-12-22T00:12:47.512Z,11.50
2018-12-22T00:15:15.451Z,11.40
2018-12-22T00:17:43.456Z,11.40
2018-12-22T00:20:11.435Z,11.40
2018-12-22T00:22:39.400Z,11.40
2018-12-22T00:25:07.508Z,11.30
2018-12-22T00:27:35.514Z,11.30
2018-12-22T00:30:04.489Z,11.30
2018-12-22T00:32:32.444Z,11.30
2018-12-22T00:35:00.415Z,11.30
2018-12-22T00:37:28.395Z,11.30
2018-12-22T00:39:56.434Z,11.30
2018-12-22T00:42:24.433Z,11.30
2018-12-22T00:44:52.379Z,11.30
2018-12-22T00:47:20.344Z,11.30
2018-12-22T00:49:48.450Z,11.30
2018-12-22T00:52:16.413Z,11.30
2018-12-22T00:54:44.407Z,11.30
2018-12-22T00:57:12.430Z,11.20
2018-12-22T00:59:40.375Z,11.20
2018-12-22T01:02:08.349Z,11.20
2018-12-22T01:04:36.312Z,11.20
2018-12-22T01:07:04.331Z,11.20
2018-12-22T01:09:32.304Z,11.20
2018-12-22T01:12:00.279Z,11.20
2018-12-22T01:14:28.245Z,11.20
2018-12-22T01:16:56.211Z,11.20
2018-12-22T01:19:24.194Z,11.30
2018-12-22T01:21:52.225Z,11.30
2018-12-22T01:24:20.204Z,11.30
2018-12-22T01:26:48.200Z,11.20
2018-12-22T01:29:33.069Z,11.30
2018-12-22T01:32:01.045Z,11.30
2018-12-22T01:34:29.008Z,11.30
2018-12-22T01:36:56.980Z,11.30
2018-12-22T01:39:24.981Z,11.30
2018-12-22T01:41:52.937Z,11.30
2018-12-22T01:44:20.916Z,11.30
2018-12-22T01:46:49.167Z,11.20
2018-12-22T01:49:17.216Z,11.30
2018-12-22T01:51:45.171Z,11.20
2018-12-22T01:54:13.203Z,11.20
2018-12-22T01:56:41.176Z,11.20
2018-12-22T01:59:09.113Z,11.20
2018-12-22T02:01:37.639Z,11.10
2018-12-22T02:04:05.615Z,11.10
2018-12-22T02:06:33.572Z,11.10
2018-12-22T02:09:01.569Z,11.10
2018-12-22T02:11:29.553Z,11.00
2018-12-22T02:13:57.537Z,11.00
2018-12-22T02:16:25.544Z,11.00
2018-12-22T02:18:53.568Z,11.00
2018-12-22T02:21:21.542Z,11.00
2018-12-22T02:23:49.519Z,10.90
2018-12-22T02:26:17.513Z,10.90
2018-12-22T02:28:45.493Z,10.90
2018-12-22T02:31:13.493Z,10.90
2018-12-22T02:33:41.472Z,10.90
2018-12-22T02:36:09.428Z,10.90
2018-12-22T02:38:37.454Z,10.90
2018-12-22T02:41:05.420Z,10.80
2018-12-22T02:43:33.836Z,10.80
2018-12-22T02:46:01.840Z,10.80
2018-12-22T02:48:31.156Z,10.80
2018-12-22T02:50:59.205Z,10.80
2018-12-22T02:53:27.209Z,10.70
2018-12-22T02:55:55.173Z,10.70
2018-12-22T02:58:23.201Z,10.70
2018-12-22T03:00:51.187Z,10.70
2018-12-22T03:03:19.156Z,10.70
2018-12-22T03:05:47.181Z,10.60
2018-12-22T03:08:15.186Z,10.60
2018-12-22T03:10:43.134Z,10.60
2018-12-22T03:13:11.099Z,10.60
2018-12-22T03:15:39.972Z,10.60
2018-12-22T03:18:08.413Z,10.60
2018-12-22T03:20:36.389Z,10.50
2018-12-22T03:23:04.398Z,10.50
2018-12-22T03:25:32.344Z,10.50
2018-12-22T03:28:00.308Z,10.50
2018-12-22T03:30:28.639Z,10.50
2018-12-22T03:33:59.617Z,10.50
2018-12-22T03:36:32.605Z,10.50
2018-12-22T03:39:00.575Z,10.50
2018-12-22T03:41:28.553Z,10.40
2018-12-22T03:43:56.524Z,10.40
2018-12-22T03:46:24.462Z,10.40
2018-12-22T03:48:52.429Z,10.40
2018-12-22T03:51:20.488Z,10.40
2018-12-22T03:53:48.447Z,10.30
2018-12-22T03:56:16.393Z,10.30
2018-12-22T03:58:44.387Z,10.30
2018-12-22T04:01:12.830Z,10.30
2018-12-22T04:03:40.777Z,10.30
2018-12-22T04:06:08.779Z,10.30
2018-12-22T04:08:36.715Z,10.30
2018-12-22T04:11:04.677Z,10.20
2018-12-22T04:13:32.653Z,10.20
2018-12-22T04:16:00.603Z,10.20
2018-12-22T04:18:28.553Z,10.20
2018-12-22T04:20:56.536Z,10.20
2018-12-22T04:23:24.513Z,10.20
2018-12-22T04:25:53.834Z,10.20
2018-12-22T04:28:21.811Z,10.10
2018-12-22T04:30:49.768Z,10.10
2018-12-22T04:33:17.775Z,10.10
2018-12-22T04:35:45.778Z,10.10
2018-12-22T04:38:13.769Z,10.20
2018-12-22T04:40:41.792Z,10.10
2018-12-22T04:43:09.765Z,10.20
2018-12-22T04:45:37.722Z,10.20
2018-12-22T04:48:05.684Z,10.20
2018-12-22T04:50:33.904Z,10.20
2018-12-22T04:53:01.891Z,10.20
2018-12-22T04:55:29.836Z,10.30
2018-12-22T04:57:57.821Z,10.30
2018-12-22T05:00:26.519Z,10.30
2018-12-22T05:02:54.477Z,10.30
2018-12-22T05:05:22.652Z,10.30
2018-12-22T05:07:50.590Z,10.30
2018-12-22T05:10:18.556Z,10.30
2018-12-22T05:12:46.739Z,10.30
2018-12-22T05:15:18.772Z,10.40
2018-12-22T05:17:46.747Z,10.30
2018-12-22T05:20:15.537Z,10.40
2018-12-22T05:22:43.826Z,10.40
2018-12-22T05:25:11.822Z,10.30
2018-12-22T05:27:39.780Z,10.30
2018-12-22T05:30:08.429Z,10.30
2018-12-22T05:32:36.397Z,10.30
2018-12-22T05:35:04.818Z,10.30
2018-12-22T05:37:33.070Z,10.30
2018-12-22T05:40:01.038Z,10.30
2018-12-22T05:42:29.066Z,10.30
2018-12-22T05:44:57.036Z,10.30
2018-12-22T05:47:26.156Z,10.30
2018-12-22T05:49:54.087Z,10.30
2018-12-22T05:52:22.373Z,10.20
2018-12-22T05:54:50.348Z,10.20
2018-12-22T05:57:18.438Z,10.20
2018-12-22T05:59:46.391Z,10.20
2018-12-22T06:02:14.365Z,10.20
2018-12-22T06:04:42.315Z,10.20
2018-12-22T06:07:10.281Z,10.10
2018-12-22T06:09:38.310Z,10.10
2018-12-22T06:12:06.457Z,10.10
2018-12-22T06:14:34.553Z,10.10
2018-12-22T06:17:02.580Z,10.10
2018-12-22T06:19:40.808Z,10.10
2018-12-22T06:22:13.462Z,10.10
2018-12-22T06:24:42.388Z,10.00
2018-12-22T06:27:10.352Z,10.00
2018-12-22T06:29:38.323Z,10.00
2018-12-22T06:32:06.302Z,10.00
2018-12-22T06:34:34.284Z,10.00
2018-12-22T06:37:02.278Z,10.00
2018-12-22T06:39:30.232Z,10.00
2018-12-22T06:41:58.241Z,10.00
2018-12-22T06:44:26.212Z,10.00
2018-12-22T06:46:54.169Z,10.00
2018-12-22T06:49:22.137Z,10.00
2018-12-22T06:51:50.129Z,10.00
2018-12-22T06:54:18.102Z,10.00
2018-12-22T06:56:46.069Z,10.00
2018-12-22T06:59:14.045Z,10.00
2018-12-22T07:01:42.013Z,10.00
2018-12-22T07:04:09.963Z,10.00
2018-12-22T07:06:37.985Z,10.00
2018-12-22T07:10:36.038Z,10.00
2018-12-22T07:13:04.072Z,10.00
2018-12-22T07:15:32.081Z,10.00
2018-12-22T07:18:00.040Z,10.00
2018-12-22T07:20:28.181Z,10.00
2018-12-22T07:22:56.128Z,10.00
2018-12-22T07:25:24.110Z,10.00
2018-12-22T07:27:52.097Z,10.00
2018-12-22T07:30:26.172Z,10.00
2018-12-22T07:32:56.910Z,10.00
2018-12-22T07:35:20.247Z,10.00
2018-12-22T07:37:48.209Z,10.00
2018-12-22T07:40:16.161Z,10.00
2018-12-22T07:42:44.166Z,10.00
2018-12-22T07:45:12.252Z,10.00
2018-12-22T07:47:41.018Z,10.00
2018-12-22T07:50:09.657Z,10.00
2018-12-22T07:52:37.649Z,10.00
2018-12-22T07:55:05.666Z,10.00
2018-12-22T07:57:33.711Z,10.00
2018-12-22T08:00:01.853Z,10.00
2018-12-22T08:02:30.013Z,10.00
2018-12-22T08:04:58.900Z,10.00
2018-12-22T08:07:31.637Z,10.00
2018-12-22T08:10:06.711Z,10.00
2018-12-22T08:12:35.695Z,10.10
2018-12-22T08:15:04.949Z,10.10
2018-12-22T08:17:33.002Z,10.00
2018-12-22T08:20:01.275Z,10.00
2018-12-22T08:22:29.278Z,10.10
2018-12-22T08:24:57.245Z,10.10
2018-12-22T08:27:25.231Z,10.10
2018-12-22T08:29:59.128Z,10.10
2018-12-22T08:32:28.120Z,10.20
2018-12-22T08:34:56.065Z,10.20
2018-12-22T08:37:24.700Z,10.20
2018-12-22T08:39:52.690Z,10.20
2018-12-22T08:42:20.689Z,10.20
2018-12-22T08:44:48.834Z,10.30
2018-12-22T08:47:16.825Z,10.30
2018-12-22T08:49:45.350Z,10.30
2018-12-22T08:52:14.159Z,10.30
2018-12-22T08:54:42.126Z,10.40
2018-12-22T08:57:10.096Z,10.40
2018-12-22T08:59:38.201Z,10.40
2018-12-22T09:02:06.284Z,10.50
2018-12-22T09:04:34.299Z,10.50
2018-12-22T09:07:02.277Z,10.50
2018-12-22T09:09:31.048Z,10.50
2018-12-22T09:11:59.011Z,10.50
2018-12-22T09:14:27.060Z,10.60
2018-12-22T09:16:55.664Z,10.60
2018-12-22T09:19:24.380Z,10.60
2018-12-22T09:21:53.264Z,10.60
2018-12-22T09:24:22.137Z,10.70
2018-12-22T09:26:50.584Z,10.70
2018-12-22T09:29:19.326Z,10.70
2018-12-22T09:31:48.208Z,10.70
2018-12-22T09:34:17.069Z,10.80
2018-12-22T09:36:47.935Z,10.80
2018-12-22T09:39:20.208Z,10.80
2018-12-22T09:41:49.018Z,10.80
2018-12-22T09:44:16.986Z,10.90
2018-12-22T09:46:45.063Z,10.90
2018-12-22T09:49:13.045Z,11.00
2018-12-22T09:51:41.017Z,11.00
2018-12-22T09:54:09.423Z,11.00
2018-12-22T09:56:37.444Z,11.10
2018-12-22T09:59:06.495Z,11.10
2018-12-22T10:01:34.805Z,11.20
2018-12-22T10:04:02.920Z,11.20
2018-12-22T10:06:30.879Z,11.30
2018-12-22T10:08:58.821Z,11.30
2018-12-22T10:11:26.931Z,11.30
2018-12-22T10:13:54.928Z,11.30
2018-12-22T10:16:22.925Z,11.40
2018-12-22T10:18:50.951Z,11.40
2018-12-22T10:21:18.937Z,11.50
2018-12-22T10:23:47.040Z,11.50
2018-12-22T10:26:15.132Z,11.50
2018-12-22T10:28:44.550Z,11.60
2018-12-22T10:31:17.957Z,11.60
2018-12-22T10:33:42.665Z,11.70
2018-12-22T10:36:10.702Z,11.70
2018-12-22T10:38:38.757Z,11.80
2018-12-22T10:41:06.846Z,11.80
2018-12-22T10:43:34.865Z,11.90
2018-12-22T10:46:02.885Z,12.00
2018-12-22T10:48:30.995Z,12.00
2018-12-22T10:50:59.027Z,12.00
2018-12-22T10:53:27.034Z,12.10
2018-12-22T10:55:55.202Z,12.10
2018-12-22T10:58:24.189Z,12.20
2018-12-22T11:00:52.212Z,12.20
2018-12-22T11:03:20.225Z,12.20
2018-12-22T11:05:48.234Z,12.30
2018-12-22T11:08:16.267Z,12.30
2018-12-22T11:10:44.360Z,12.40
2018-12-22T11:13:12.353Z,12.40
2018-12-22T11:15:40.381Z,12.40
2018-12-22T11:18:08.479Z,12.40
2018-12-22T11:20:36.491Z,12.40
2018-12-22T11:23:04.494Z,12.40
2018-12-22T11:25:32.554Z,12.40
2018-12-22T11:28:00.572Z,12.40
2018-12-22T11:30:36.015Z,12.40
2018-12-22T11:33:20.920Z,12.40
2018-12-22T11:35:48.951Z,12.40
2018-12-22T11:38:16.984Z,12.50
2018-12-22T11:40:45.024Z,12.50
2018-12-22T11:43:13.083Z,12.50
2018-12-22T11:45:41.185Z,12.50
2018-12-22T11:49:05.484Z,12.60
2018-12-22T11:53:03.111Z,12.60
2018-12-22T11:55:31.257Z,12.60
2018-12-22T11:57:59.235Z,12.60
2018-12-22T12:00:27.199Z,12.60
2018-12-22T12:02:55.211Z,12.60
2018-12-22T12:05:23.167Z,12.70
2018-12-22T12:07:51.128Z,12.70
2018-12-22T12:10:19.137Z,12.70
2018-12-22T12:12:48.452Z,12.80
2018-12-22T12:15:20.054Z,12.90
2018-12-22T12:20:01.951Z,12.90
2018-12-22T12:22:29.962Z,12.90
2018-12-22T12:24:57.993Z,13.00
2018-12-22T12:27:25.981Z,13.00
2018-12-22T12:29:54.102Z,13.00
2018-12-22T12:32:22.077Z,13.00
2018-12-22T12:34:50.117Z,13.10
2018-12-22T12:37:18.089Z,13.10
2018-12-22T12:39:46.034Z,13.20
2018-12-22T12:42:13.998Z,13.20
2018-12-22T12:44:43.012Z,13.20
2018-12-22T12:47:11.635Z,13.30
2018-12-22T12:49:39.596Z,13.30
2018-12-22T12:52:07.690Z,13.30
2018-12-22T12:54:35.714Z,13.30
2018-12-22T12:57:04.606Z,13.30
2018-12-22T12:59:33.711Z,13.30
2018-12-22T13:02:03.694Z,13.30
2018-12-22T13:04:31.678Z,13.40
2018-12-22T13:06:59.720Z,13.40
2018-12-22T13:09:27.792Z,13.40
2018-12-22T13:11:58.733Z,13.50
2018-12-22T13:14:26.735Z,13.50
2018-12-22T13:16:54.717Z,13.50
2018-12-22T13:19:22.681Z,13.50
2018-12-22T13:21:52.785Z,13.60
2018-12-22T13:24:20.759Z,13.60
2018-12-22T13:26:49.369Z,13.60
2018-12-22T13:29:17.388Z,13.70
2018-12-22T13:31:46.161Z,13.70
2018-12-22T13:34:14.130Z,13.70
2018-12-22T13:36:42.149Z,13.70
2018-12-22T13:39:15.578Z,13.70
2018-12-22T13:41:43.650Z,13.70
2018-12-22T13:44:11.657Z,13.60
2018-12-22T13:46:39.676Z,13.60
2018-12-22T13:49:07.871Z,13.60
2018-12-22T13:51:37.179Z,13.60
2018-12-22T13:54:05.198Z,13.60
2018-12-22T13:56:33.200Z,13.60
2018-12-22T13:59:01.333Z,13.60
2018-12-22T14:01:31.392Z,13.60
2018-12-22T14:03:59.400Z,13.60
2018-12-22T14:06:31.628Z,13.70
2018-12-22T14:08:59.617Z,13.70
2018-12-22T14:11:27.644Z,13.70
2018-12-22T14:13:57.564Z,13.70
2018-12-22T14:16:48.220Z,13.70
2018-12-22T14:19:16.456Z,13.70
2018-12-22T14:22:00.887Z,13.70
2018-12-22T14:24:38.252Z,13.70
2018-12-22T14:27:06.369Z,13.70
2018-12-22T14:29:34.339Z,13.60
2018-12-22T14:35:25.532Z,13.60
2018-12-22T14:37:53.693Z,13.50
2018-12-22T14:40:21.769Z,13.50
2018-12-22T14:42:49.811Z,13.40
2018-12-22T14:45:17.788Z,13.40
2018-12-22T14:47:45.750Z,13.40
2018-12-22T14:50:13.751Z,13.30
2018-12-22T14:52:41.736Z,13.30
2018-12-22T14:55:10.041Z,13.20
2018-12-22T14:57:48.078Z,13.20
2018-12-22T15:00:16.105Z,13.20
2018-12-22T15:02:45.427Z,13.10
2018-12-22T15:05:13.459Z,13.10
2018-12-22T15:07:41.506Z,13.00
2018-12-22T15:10:09.699Z,13.00
2018-12-22T15:12:37.785Z,12.90
2018-12-22T15:15:07.453Z,12.90
2018-12-22T15:17:35.465Z,12.90
2018-12-22T15:20:05.421Z,12.80
2018-12-22T15:22:33.413Z,12.80
2018-12-22T15:25:02.055Z,12.80
2018-12-22T15:27:30.574Z,12.70
2018-12-22T15:29:59.289Z,12.70
2018-12-22T15:32:27.925Z,12.60
2018-12-22T15:34:56.650Z,12.60
2018-12-22T15:37:24.762Z,12.50
2018-12-22T15:39:52.802Z,12.50
2018-12-22T15:42:20.921Z,12.50
2018-12-22T15:44:48.913Z,12.40
2018-12-22T15:47:17.001Z,12.40
2018-12-22T15:49:45.033Z,12.40
2018-12-22T15:52:13.016Z,12.30
2018-12-22T15:54:41.004Z,12.30
2018-12-22T15:57:09.040Z,12.20
2018-12-22T15:59:37.037Z,12.10
2018-12-22T16:02:05.064Z,12.10
2018-12-22T16:04:33.049Z,12.00
2018-12-22T16:07:01.030Z,12.00
2018-12-22T16:09:29.216Z,11.90
2018-12-22T16:11:57.302Z,11.80
2018-12-22T16:14:25.361Z,11.80
2018-12-22T16:16:53.413Z,11.70
2018-12-22T16:19:21.465Z,11.70
2018-12-22T16:21:49.448Z,11.60
2018-12-22T16:24:17.470Z,11.60
2018-12-22T16:26:45.517Z,11.50
2018-12-22T16:29:23.562Z,11.40
2018-12-22T16:31:51.584Z,11.40
2018-12-22T16:34:19.577Z,11.30
2018-12-22T16:36:47.582Z,11.20
2018-12-22T16:39:15.672Z,11.20
2018-12-22T16:41:43.696Z,11.10
2018-12-22T16:44:15.381Z,11.10
2018-12-22T16:46:43.913Z,11.00
2018-12-22T16:49:11.927Z,10.90
2018-12-22T16:51:39.920Z,10.90
2018-12-22T16:54:07.988Z,10.90
2018-12-22T16:56:35.964Z,10.80
2018-12-22T16:59:04.448Z,10.80
2018-12-22T17:01:40.469Z,10.70
2018-12-22T17:04:08.541Z,10.70
2018-12-22T17:06:38.426Z,10.60
2018-12-22T17:09:07.763Z,10.60
2018-12-22T17:11:35.929Z,10.50
2018-12-22T17:14:04.090Z,10.50
2018-12-22T17:16:32.481Z,10.40
2018-12-22T17:19:00.520Z,10.40
2018-12-22T17:21:50.010Z,10.30
2018-12-22T17:24:24.084Z,10.30
2018-12-22T17:26:52.177Z,10.30
2018-12-22T17:29:20.159Z,10.20
2018-12-22T17:31:48.161Z,10.20
2018-12-22T17:34:16.307Z,10.10
2018-12-22T17:36:44.765Z,10.10
2018-12-22T17:39:14.088Z,10.10
2018-12-22T17:41:46.653Z,10.10
2018-12-22T17:44:14.680Z,10.00
2018-12-22T17:46:42.737Z,10.00
2018-12-22T17:49:10.942Z,10.00
2018-12-22T17:51:39.190Z,9.90
2018-12-22T17:54:07.336Z,9.90
2018-12-22T17:56:35.440Z,9.90
2018-12-22T17:59:03.916Z,9.90
2018-12-22T18:01:32.185Z,9.80
2018-12-22T18:04:04.098Z,9.80
2018-12-22T18:06:32.668Z,9.80
2018-12-22T18:09:00.697Z,9.80
2018-12-22T18:11:29.265Z,9.80
2018-12-22T18:13:57.284Z,9.80
2018-12-22T18:16:25.308Z,9.80
2018-12-22T18:18:53.957Z,9.70
2018-12-22T18:21:22.050Z,9.70
2018-12-22T18:23:50.095Z,9.70
2018-12-22T18:26:18.304Z,9.80
2018-12-22T18:28:47.066Z,9.80
2018-12-22T18:31:15.136Z,9.80
2018-12-22T18:33:43.272Z,9.80
2018-12-22T18:36:12.184Z,9.80
2018-12-22T18:38:40.233Z,9.80
2018-12-22T18:41:09.322Z,9.80
2018-12-22T18:43:41.121Z,9.80
2018-12-22T18:46:09.189Z,9.80
2018-12-22T18:48:37.669Z,9.80
2018-12-22T18:51:05.694Z,9.80
2018-12-22T18:53:34.216Z,9.80
2018-12-22T18:56:03.364Z,9.80
2018-12-22T18:58:32.707Z,9.80
2018-12-22T19:01:08.852Z,9.80
2018-12-22T19:03:44.681Z,9.80
2018-12-22T19:06:13.121Z,9.80
2018-12-22T19:08:41.881Z,9.80
2018-12-22T19:11:13.409Z,9.80
2018-12-22T19:13:41.563Z,9.80
2018-12-22T19:16:09.661Z,9.80
2018-12-22T19:18:37.852Z,9.80
2018-12-22T19:21:05.973Z,9.80
2018-12-22T19:23:34.979Z,9.80
2018-12-22T19:26:03.288Z,9.80
2018-12-22T19:28:31.318Z,9.90
2018-12-22T19:30:59.357Z,9.80
2018-12-22T19:33:27.439Z,9.90
2018-12-22T19:35:55.479Z,9.90
2018-12-22T19:38:23.501Z,9.90
2018-12-22T19:40:54.159Z,9.90
2018-12-22T19:43:22.229Z,9.90
2018-12-22T19:45:50.490Z,9.90
2018-12-22T19:48:18.538Z,9.90
2018-12-22T19:50:46.627Z,9.90
2018-12-22T19:53:14.691Z,9.90
2018-12-22T19:55:42.799Z,9.90
2018-12-22T19:58:10.890Z,9.90
2018-12-22T20:00:38.940Z,9.90
2018-12-22T20:03:07.000Z,9.90
2018-12-22T20:05:35.051Z,9.90
2018-12-22T20:08:03.094Z,9.90
2018-12-22T20:10:31.250Z,9.90
2018-12-22T20:12:59.261Z,9.90
2018-12-22T20:15:27.312Z,10.00
2018-12-22T20:17:55.358Z,10.00
2018-12-22T20:20:23.378Z,10.00
2018-12-22T20:22:51.407Z,10.00
2018-12-22T20:25:19.482Z,10.00
2018-12-22T20:27:47.598Z,10.00
2018-12-22T20:30:15.639Z,10.00
2018-12-22T20:32:43.780Z,10.00
2018-12-22T20:35:12.026Z,10.00
2018-12-22T20:37:40.088Z,9.90
2018-12-22T20:40:08.581Z,10.00
2018-12-22T20:42:36.655Z,9.90
2018-12-22T20:45:05.169Z,10.00
2018-12-22T20:47:33.328Z,10.00
2018-12-22T20:50:01.324Z,10.00
2018-12-22T20:52:30.305Z,9.90
2018-12-22T20:54:58.311Z,10.00
2018-12-22T20:57:26.317Z,10.00
2018-12-22T20:59:54.422Z,10.00
2018-12-22T21:02:23.171Z,10.00
2018-12-22T21:04:52.691Z,10.00
2018-12-22T21:07:20.704Z,10.00
2018-12-22T21:09:48.732Z,10.00
2018-12-22T21:12:16.704Z,10.00
2018-12-22T21:14:44.753Z,10.00
2018-12-22T21:17:12.799Z,10.00
2018-12-22T21:19:40.847Z,10.10
2018-12-22T21:22:08.848Z,10.10
2018-12-22T21:24:36.871Z,10.10
2018-12-22T21:27:04.880Z,10.10
2018-12-22T21:29:32.867Z,10.10
2018-12-22T21:32:01.797Z,10.10
2018-12-22T21:34:29.849Z,10.10
2018-12-22T21:36:57.816Z,10.10
2018-12-22T21:39:25.845Z,10.10
2018-12-22T21:41:53.883Z,10.10
2018-12-22T21:44:21.905Z,10.10
2018-12-22T21:46:50.306Z,10.10
2018-12-22T21:49:19.142Z,10.20
2018-12-22T21:51:47.167Z,10.20
2018-12-22T21:54:15.228Z,10.10
2018-12-22T21:56:43.246Z,10.20
2018-12-22T21:59:11.256Z,10.20
2018-12-22T22:01:39.407Z,10.20
2018-12-22T22:04:07.605Z,10.20
2018-12-22T22:06:35.617Z,10.20
2018-12-22T22:09:05.094Z,10.20
2018-12-22T22:11:33.132Z,10.20
2018-12-22T22:14:01.166Z,10.20
2018-12-22T22:16:29.232Z,10.20
2018-12-22T22:18:57.246Z,10.30
2018-12-22T22:21:25.216Z,10.20
2018-12-22T22:23:53.232Z,10.30
2018-12-22T22:26:21.212Z,10.30
2018-12-22T22:28:49.221Z,10.30
2018-12-22T22:31:17.235Z,10.30
2018-12-22T22:33:45.224Z,10.30
2018-12-22T22:36:13.640Z,10.30
2018-12-22T22:38:41.672Z,10.30
2018-12-22T22:41:09.670Z,10.30
2018-12-22T22:43:37.654Z,10.30
2018-12-22T22:46:05.671Z,10.30
2018-12-22T22:48:33.618Z,10.30
2018-12-22T22:51:07.036Z,10.30
2018-12-22T22:53:35.006Z,10.40
2018-12-22T22:56:02.960Z,10.40
2018-12-22T22:58:30.944Z,10.40
2018-12-22T23:00:59.175Z,10.40
2018-12-22T23:03:27.186Z,10.40
2018-12-22T23:05:55.170Z,10.40
2018-12-22T23:08:23.205Z,10.50
2018-12-22T23:10:51.180Z,10.40
2018-12-22T23:13:19.208Z,10.40
2018-12-22T23:15:47.190Z,10.50
2018-12-22T23:18:15.618Z,10.50
2018-12-22T23:20:43.773Z,10.50
2018-12-22T23:23:11.775Z,10.50
2018-12-22T23:25:39.796Z,10.50
2018-12-22T23:28:07.819Z,10.50
2018-12-22T23:30:35.958Z,10.50
2018-12-22T23:33:03.969Z,10.50
2018-12-22T23:35:32.020Z,10.50
2018-12-22T23:38:00.233Z,10.50
2018-12-22T23:40:28.253Z,10.50
2018-12-22T23:42:56.257Z,10.60
2018-12-22T23:45:24.250Z,10.60
2018-12-22T23:47:52.230Z,10.60
2018-12-22T23:50:20.261Z,10.60
2018-12-22T23:52:48.257Z,10.60
2018-12-22T23:55:16.224Z,10.60
2018-12-22T23:57:44.219Z,10.60
